aviador You're here:

KIFA Decoded Metar

in _UNIDENTIFIED
Report Time2017-07-24 16:15:00
UTC Time2017-07-24 16:32:05
Flight Rules mvfr MVFR
Wind060° at 03 kt
W.Decomp.*RWY 13: 1.0 kt HW 2.8 kt LCW
W.Rank060° ranks 36
Current wind is below 060° avg. (5.9)
Visibility9999 m
Phenomena:N/A
Clouds:Broken 021 Hf
Expected CloudBase > 2,000 ft AGL from Temp-Dew spread
Ceiling2,100 ft
Temp21°C (ISA +8)
Dew Point16°C (73% RH)
QNH1018 hPa
Density Alt2,178 ft
Elevation1,138 ft
Report Wrong Elevation
Raw Report
METAR KIFA 241615Z AUTO 06003KT 10SM BKN021 21/16 A3007 RMK AO2 T02140163=

Extra information for KIFA:More info

Metar Taf Metar & Taf Last 4 Metars F.Rules Stats Wind Profile Meteogram Temp Stats Metar ALERT Operation Metar Decoded Social comments